Centerview, North Carolina
Current Conditions -  °F | °C
As of 4:55 PM on Monday 20 Oct 2014 (Local Time) from KJQF Reporting Station
Few Clouds Few Clouds  
Wind Chill: 70°   Ceiling: Unl
Heat Index: 70°   Visibility: 10mi
Dew Point: 46°   Wind: 6mph
Humidity: 43%   Direction: 210°SSW
Pressure: 30.02"   Gusts: NA
Location:  35.5043°N, 80.6706°W
Report Text: KJQF 202055Z 21005KT 10SM FEW047 21/08 A3002
Loading
Personal Weather Stations






























Interactive Weather Map
Tropical Storm Tracking
New forecast layout! Learn more

10-Day Weather Forecast

Advertisements
Track Severe Weather on mobile